createdAt,value
2022-11-13T00:01:48.197Z,92.55
2022-11-13T00:04:17.800Z,92.90
2022-11-13T00:06:47.362Z,92.77
2022-11-13T00:09:17.025Z,92.11
2022-11-13T00:11:47.337Z,92.32
2022-11-13T00:14:17.452Z,91.78
2022-11-13T00:16:48.836Z,92.28
2022-11-13T00:19:18.833Z,92.55
2022-11-13T00:21:48.524Z,92.69
2022-11-13T00:24:18.166Z,92.23
2022-11-13T00:26:47.805Z,92.36
2022-11-13T00:29:17.656Z,92.18
2022-11-13T00:31:48.797Z,92.94
2022-11-13T00:34:47.173Z,92.61
2022-11-13T00:37:08.020Z,92.28
2022-11-13T00:39:37.762Z,92.63
2022-11-13T00:42:07.358Z,92.50
2022-11-13T00:44:36.941Z,92.35
2022-11-13T00:47:07.966Z,92.50
2022-11-13T00:49:37.568Z,93.02
2022-11-13T00:52:07.606Z,93.41
2022-11-13T00:54:37.212Z,93.58
2022-11-13T00:57:06.905Z,93.70
2022-11-13T00:59:36.619Z,93.62
2022-11-13T01:02:08.378Z,93.91
2022-11-13T01:04:37.925Z,94.14
2022-11-13T01:07:07.562Z,94.45
2022-11-13T01:09:37.219Z,94.02
2022-11-13T01:12:08.347Z,93.70
2022-11-13T01:14:38.397Z,93.75
2022-11-13T01:17:09.814Z,94.28
2022-11-13T01:19:39.508Z,93.95
2022-11-13T01:22:09.200Z,94.12
2022-11-13T01:24:38.760Z,94.41
2022-11-13T01:27:08.402Z,94.81
2022-11-13T01:29:38.654Z,94.83
2022-11-13T01:32:10.074Z,94.38
2022-11-13T01:34:39.761Z,94.77
2022-11-13T01:37:09.493Z,95.20
2022-11-13T01:39:39.184Z,95.19
2022-11-13T01:42:08.958Z,94.96
2022-11-13T01:44:49.403Z,94.08
2022-11-13T01:47:21.641Z,94.30
2022-11-13T01:49:52.996Z,94.63
2022-11-13T01:52:24.286Z,95.08
2022-11-13T01:54:54.861Z,94.34
2022-11-13T01:57:24.481Z,95.16
2022-11-13T01:59:56.684Z,95.32
2022-11-13T02:02:27.914Z,94.61
2022-11-13T02:04:57.528Z,94.60
2022-11-13T02:07:27.417Z,94.55
2022-11-13T02:09:58.229Z,95.22
2022-11-13T02:12:33.906Z,95.25
2022-11-13T02:15:06.048Z,95.14
2022-11-13T02:17:41.909Z,94.70
2022-11-13T02:20:11.898Z,95.61
2022-11-13T02:22:45.334Z,95.02
2022-11-13T02:25:17.199Z,95.69
2022-11-13T02:27:48.224Z,95.76
2022-11-13T02:30:23.646Z,95.39
2022-11-13T02:32:57.356Z,95.43
2022-11-13T02:35:28.778Z,96.32
2022-11-13T02:37:59.227Z,96.26
2022-11-13T02:40:30.609Z,95.77
2022-11-13T02:43:00.476Z,96.53
2022-11-13T02:45:30.136Z,95.66
2022-11-13T02:48:00.798Z,96.63
2022-11-13T02:50:30.399Z,95.76
2022-11-13T02:53:00.170Z,96.06
2022-11-13T02:55:31.210Z,96.26
2022-11-13T02:58:00.984Z,96.32
2022-11-13T03:00:31.126Z,96.50
2022-11-13T03:03:01.141Z,96.65
2022-11-13T03:05:30.783Z,96.39
2022-11-13T03:08:00.589Z,96.58
2022-11-13T03:10:31.623Z,97.06
2022-11-13T03:13:03.648Z,96.63
2022-11-13T03:15:34.906Z,97.59
2022-11-13T03:18:05.292Z,96.81
2022-11-13T03:20:37.009Z,96.84
2022-11-13T03:23:06.729Z,96.99
2022-11-13T03:25:37.725Z,96.95
2022-11-13T03:28:07.324Z,97.05
2022-11-13T03:30:36.831Z,98.08
2022-11-13T03:33:06.473Z,96.82
2022-11-13T03:35:42.958Z,97.01
2022-11-13T03:38:15.538Z,97.27
2022-11-13T03:40:46.497Z,97.58
2022-11-13T03:43:16.337Z,97.46
2022-11-13T03:45:47.248Z,97.39
2022-11-13T03:48:17.479Z,97.09
2022-11-13T03:50:47.886Z,97.02
2022-11-13T03:53:17.613Z,98.30
2022-11-13T03:55:48.606Z,97.53
2022-11-13T03:58:18.278Z,97.18
2022-11-13T04:00:48.337Z,96.98
2022-11-13T04:03:18.143Z,98.11
2022-11-13T04:05:49.036Z,97.29
2022-11-13T04:08:19.156Z,97.54
2022-11-13T04:10:50.141Z,97.45
2022-11-13T04:13:20.293Z,97.17
2022-11-13T04:15:50.647Z,97.75
2022-11-13T04:18:20.524Z,96.81
2022-11-13T04:20:50.068Z,97.07
2022-11-13T04:23:19.678Z,97.05
2022-11-13T04:25:51.019Z,96.30
2022-11-13T04:28:20.698Z,96.71
2022-11-13T04:30:50.456Z,97.41
2022-11-13T04:33:20.212Z,97.64
2022-11-13T04:35:49.996Z,96.87
2022-11-13T04:38:19.758Z,97.76
2022-11-13T04:41:12.139Z,97.50
2022-11-13T04:43:40.833Z,97.20
2022-11-13T04:46:10.360Z,96.82
2022-11-13T04:48:40.022Z,96.73
2022-11-13T04:51:09.623Z,96.69
2022-11-13T04:53:39.203Z,97.26
2022-11-13T04:56:10.186Z,96.89
2022-11-13T04:58:39.739Z,97.10
2022-11-13T05:01:09.296Z,96.96
2022-11-13T05:03:39.011Z,97.27
2022-11-13T05:06:10.073Z,97.24
2022-11-13T05:08:39.696Z,97.63
2022-11-13T05:11:10.540Z,97.55
2022-11-13T05:13:40.447Z,98.03
2022-11-13T05:16:11.713Z,97.77
2022-11-13T05:18:41.523Z,97.58
2022-11-13T05:21:10.991Z,97.52
2022-11-13T05:23:40.498Z,97.89
2022-11-13T05:26:12.247Z,97.43
2022-11-13T05:28:41.841Z,98.01
2022-11-13T05:31:12.118Z,97.98
2022-11-13T05:33:42.454Z,98.15
2022-11-13T05:36:14.341Z,97.73
2022-11-13T05:38:44.313Z,97.94
2022-11-13T05:41:15.827Z,97.92
2022-11-13T05:43:45.666Z,97.63
2022-11-13T05:46:16.507Z,97.07
2022-11-13T05:48:46.650Z,97.40
2022-11-13T05:51:17.115Z,97.70
2022-11-13T05:53:46.896Z,97.55
2022-11-13T05:56:18.913Z,97.79
2022-11-13T05:58:48.988Z,98.05
2022-11-13T06:01:19.685Z,97.42
2022-11-13T06:03:49.606Z,97.71
2022-11-13T06:06:20.221Z,97.55
2022-11-13T06:08:50.753Z,97.68
2022-11-13T06:11:24.518Z,97.48
2022-11-13T06:13:54.831Z,96.72
2022-11-13T06:16:25.619Z,97.40
2022-11-13T06:18:56.200Z,97.25
2022-11-13T06:21:26.841Z,96.85
2022-11-13T06:23:57.498Z,97.01
2022-11-13T06:26:29.256Z,96.82
2022-11-13T06:28:59.015Z,96.95
2022-11-13T06:31:29.249Z,96.73
2022-11-13T06:34:00.171Z,96.40
2022-11-13T06:36:33.334Z,96.57
2022-11-13T06:39:03.246Z,96.35
2022-11-13T06:41:34.246Z,97.01
2022-11-13T06:44:03.864Z,96.99
2022-11-13T06:46:33.646Z,96.54
2022-11-13T06:49:03.154Z,96.40
2022-11-13T06:51:32.707Z,96.75
2022-11-13T06:54:07.365Z,96.05
2022-11-13T06:56:43.767Z,95.72
2022-11-13T06:59:13.308Z,94.80
2022-11-13T07:01:42.813Z,95.56
2022-11-13T07:04:13.466Z,95.09
2022-11-13T07:06:43.101Z,95.34
2022-11-13T07:09:12.602Z,95.07
2022-11-13T07:11:44.205Z,94.75
2022-11-13T07:14:14.289Z,94.32
2022-11-13T07:17:08.090Z,93.70
2022-11-13T07:19:33.981Z,93.53
2022-11-13T07:22:03.465Z,93.51
2022-11-13T07:24:33.036Z,93.60
2022-11-13T07:27:04.157Z,93.36
2022-11-13T07:29:33.670Z,93.48
2022-11-13T07:32:03.211Z,93.64
2022-11-13T07:34:32.770Z,92.87
2022-11-13T07:37:03.118Z,92.64
2022-11-13T07:39:32.641Z,92.13
2022-11-13T07:42:02.142Z,91.23
2022-11-13T07:44:53.394Z,90.64
2022-11-13T07:47:22.741Z,90.48
2022-11-13T07:49:53.735Z,90.82
2022-11-13T07:52:24.842Z,91.04
2022-11-13T07:54:54.410Z,90.03
2022-11-13T07:57:23.985Z,89.70
2022-11-13T07:59:55.128Z,89.09
2022-11-13T08:02:26.684Z,89.31
2022-11-13T08:04:56.596Z,88.86
2022-11-13T08:07:26.498Z,88.74
2022-11-13T08:09:56.046Z,88.70
2022-11-13T08:12:26.075Z,88.62
2022-11-13T08:14:57.276Z,88.24
2022-11-13T08:17:27.399Z,88.38
2022-11-13T08:19:56.868Z,88.66
2022-11-13T08:22:26.700Z,88.29
2022-11-13T08:24:56.269Z,88.25
2022-11-13T08:27:26.139Z,88.69
2022-11-13T08:29:57.045Z,88.20
2022-11-13T08:32:26.591Z,88.00
2022-11-13T08:34:56.084Z,87.91
2022-11-13T08:37:25.698Z,87.53
2022-11-13T08:39:55.317Z,87.46
2022-11-13T08:42:24.799Z,87.34
2022-11-13T08:44:54.287Z,87.24
2022-11-13T08:47:29.434Z,86.97
2022-11-13T08:49:59.545Z,86.66
2022-11-13T08:52:29.284Z,85.99
2022-11-13T08:54:59.128Z,86.73
2022-11-13T08:57:28.694Z,86.57
2022-11-13T08:59:58.120Z,86.71
2022-11-13T09:02:29.080Z,86.17
2022-11-13T09:04:58.665Z,86.73
2022-11-13T09:07:28.682Z,86.56
2022-11-13T09:09:58.205Z,86.66
2022-11-13T09:12:28.687Z,86.20
2022-11-13T09:14:59.245Z,86.66
2022-11-13T09:17:30.682Z,86.58
2022-11-13T09:20:04.009Z,85.29
2022-11-13T09:22:34.604Z,84.68
2022-11-13T09:25:04.296Z,84.17
2022-11-13T09:27:34.804Z,84.33
2022-11-13T09:30:04.658Z,84.52
2022-11-13T09:32:35.841Z,84.18
2022-11-13T09:35:05.606Z,84.22
2022-11-13T09:37:35.297Z,84.45
2022-11-13T09:40:05.030Z,84.09
2022-11-13T09:42:35.908Z,85.08
2022-11-13T09:45:08.085Z,85.27
2022-11-13T09:47:41.541Z,85.56
2022-11-13T09:50:13.373Z,85.47
2022-11-13T09:52:44.013Z,85.36
2022-11-13T09:55:14.529Z,86.26
2022-11-13T09:57:48.581Z,85.79
2022-11-13T10:00:19.474Z,86.57
2022-11-13T10:02:58.393Z,86.48
2022-11-13T10:05:33.003Z,85.87
2022-11-13T10:08:06.925Z,85.57
2022-11-13T10:10:55.637Z,85.39
2022-11-13T10:13:28.561Z,84.80
2022-11-13T10:16:03.302Z,83.78
2022-11-13T10:18:36.400Z,83.33
2022-11-13T10:21:11.059Z,83.57
2022-11-13T10:23:41.031Z,83.70
2022-11-13T10:26:14.441Z,83.29
2022-11-13T10:28:50.414Z,83.08
2022-11-13T10:31:20.397Z,83.18
2022-11-13T10:33:52.274Z,83.72
2022-11-13T10:36:25.693Z,84.17
2022-11-13T10:38:59.667Z,84.25
2022-11-13T10:41:29.456Z,84.24
2022-11-13T10:43:59.913Z,84.29
2022-11-13T10:46:30.617Z,83.52
2022-11-13T10:49:12.245Z,83.92
2022-11-13T10:51:42.160Z,84.76
2022-11-13T10:54:21.998Z,84.62
2022-11-13T10:56:58.192Z,84.59
2022-11-13T10:59:28.417Z,84.78
2022-11-13T11:01:57.933Z,84.61
2022-11-13T11:04:28.880Z,85.04
2022-11-13T11:07:19.734Z,85.17
2022-11-13T11:09:51.907Z,84.16
2022-11-13T11:12:30.321Z,84.86
2022-11-13T11:15:17.514Z,83.94
2022-11-13T11:17:54.762Z,83.48
2022-11-13T11:20:27.839Z,83.00
2022-11-13T11:23:00.677Z,82.40
2022-11-13T11:25:34.775Z,81.91
2022-11-13T11:28:07.053Z,81.86
2022-11-13T11:30:41.116Z,81.77
2022-11-13T11:33:14.176Z,81.39
2022-11-13T11:35:48.381Z,81.04
2022-11-13T11:38:20.834Z,80.12
2022-11-13T11:40:53.681Z,79.82
2022-11-13T11:43:28.297Z,78.46
2022-11-13T11:45:58.028Z,79.16
2022-11-13T11:48:29.861Z,79.75
2022-11-13T11:51:05.024Z,80.34
2022-11-13T11:53:41.226Z,80.74
2022-11-13T11:56:16.041Z,80.82
2022-11-13T11:58:56.069Z,80.82
2022-11-13T12:01:34.060Z,81.75
2022-11-13T12:04:11.715Z,81.25
2022-11-13T12:06:49.821Z,81.50
2022-11-13T12:09:24.593Z,81.51
2022-11-13T12:12:00.807Z,81.10
2022-11-13T12:14:37.254Z,81.73
2022-11-13T12:17:17.316Z,81.59
2022-11-13T12:19:53.199Z,81.25
2022-11-13T12:22:30.682Z,80.96
2022-11-13T12:25:09.521Z,80.76
2022-11-13T12:27:43.982Z,80.63
2022-11-13T12:30:16.781Z,79.49
2022-11-13T12:32:53.647Z,79.40
2022-11-13T12:35:24.856Z,79.40
2022-11-13T12:37:58.067Z,79.32
2022-11-13T12:40:30.070Z,79.61
2022-11-13T12:43:06.868Z,78.98
2022-11-13T12:45:45.614Z,79.21
2022-11-13T12:48:29.353Z,79.65
2022-11-13T12:51:00.465Z,80.21
2022-11-13T12:53:32.301Z,80.23
2022-11-13T12:56:02.783Z,80.23
2022-11-13T12:58:33.785Z,79.75
2022-11-13T13:01:07.158Z,79.77
2022-11-13T13:03:45.105Z,79.68
2022-11-13T13:06:22.382Z,79.79
2022-11-13T13:09:02.054Z,79.58
2022-11-13T13:11:38.362Z,79.98
2022-11-13T13:14:26.149Z,79.92
2022-11-13T13:17:05.517Z,79.24
2022-11-13T13:19:35.078Z,79.34
2022-11-13T13:22:04.651Z,78.86
2022-11-13T13:24:36.621Z,80.56
2022-11-13T13:27:21.651Z,79.34
2022-11-13T13:29:51.167Z,79.42
2022-11-13T13:32:23.909Z,79.18
2022-11-13T13:35:00.857Z,79.35
2022-11-13T13:37:36.340Z,79.55
2022-11-13T13:40:14.256Z,79.30
2022-11-13T13:42:51.157Z,79.16
2022-11-13T13:45:25.954Z,79.30
2022-11-13T13:47:57.575Z,79.95
2022-11-13T13:50:29.183Z,80.57
2022-11-13T13:52:59.748Z,82.59
2022-11-13T13:55:33.107Z,82.18
2022-11-13T13:58:05.700Z,82.59
2022-11-13T14:00:44.592Z,82.17
2022-11-13T14:03:25.105Z,80.91
2022-11-13T14:05:58.144Z,80.81
2022-11-13T14:08:31.867Z,80.77
2022-11-13T14:11:16.883Z,81.10
2022-11-13T14:13:47.123Z,81.13
2022-11-13T14:16:17.131Z,82.10
2022-11-13T14:18:46.849Z,82.33
2022-11-13T14:21:17.927Z,82.43
2022-11-13T14:23:49.194Z,82.08
2022-11-13T14:26:21.263Z,82.33
2022-11-13T14:28:54.025Z,82.71
2022-11-13T14:31:29.865Z,82.82
2022-11-13T14:34:01.786Z,84.01
2022-11-13T14:36:33.174Z,83.96
2022-11-13T14:39:02.794Z,83.55
2022-11-13T14:41:36.273Z,84.70
2022-11-13T14:44:06.492Z,85.98
2022-11-13T14:46:37.201Z,85.01
2022-11-13T14:49:13.881Z,85.95
2022-11-13T14:51:43.765Z,86.60
2022-11-13T14:54:33.815Z,87.12
2022-11-13T14:57:13.819Z,86.85
2022-11-13T14:59:44.357Z,87.44
2022-11-13T15:02:14.443Z,87.54
2022-11-13T15:04:44.117Z,87.16
2022-11-13T15:07:22.130Z,87.93
2022-11-13T15:09:51.862Z,88.94
2022-11-13T15:12:24.196Z,89.81
2022-11-13T15:14:54.457Z,90.12
2022-11-13T15:17:24.579Z,90.46
2022-11-13T15:19:55.006Z,90.31
2022-11-13T15:22:28.689Z,90.03
2022-11-13T15:24:58.716Z,90.73
2022-11-13T15:27:29.655Z,90.69
2022-11-13T15:29:59.537Z,91.32
2022-11-13T15:32:30.795Z,91.78
2022-11-13T15:35:00.961Z,91.70
2022-11-13T15:37:30.612Z,91.74
2022-11-13T15:40:00.433Z,91.85
2022-11-13T15:42:33.516Z,92.06
2022-11-13T15:45:03.324Z,92.19
2022-11-13T15:47:34.611Z,92.52
2022-11-13T15:50:14.400Z,93.23
2022-11-13T15:52:47.073Z,92.53
2022-11-13T15:55:20.419Z,93.24
2022-11-13T15:57:51.377Z,92.87
2022-11-13T16:00:24.943Z,92.80
2022-11-13T16:02:55.919Z,93.00
2022-11-13T16:05:26.513Z,93.13
2022-11-13T16:07:56.740Z,93.28
2022-11-13T16:10:26.535Z,93.47
2022-11-13T16:12:58.913Z,93.52
2022-11-13T16:15:28.935Z,93.54
2022-11-13T16:17:59.107Z,94.00
2022-11-13T16:20:28.821Z,93.67
2022-11-13T16:22:58.557Z,93.42
2022-11-13T16:25:28.090Z,93.83
2022-11-13T16:27:59.545Z,93.56
2022-11-13T16:30:31.413Z,93.31
2022-11-13T16:33:05.759Z,93.21
2022-11-13T16:35:35.316Z,93.40
2022-11-13T16:38:05.213Z,93.56
2022-11-13T16:40:34.893Z,93.06
2022-11-13T16:43:05.714Z,93.22
2022-11-13T16:45:35.278Z,93.14
2022-11-13T16:48:05.250Z,93.53
2022-11-13T16:50:36.932Z,92.44
2022-11-13T16:53:06.459Z,92.62
2022-11-13T16:55:36.812Z,92.51
2022-11-13T16:58:07.703Z,92.66
2022-11-13T17:00:37.253Z,93.03
2022-11-13T17:03:06.814Z,92.71
2022-11-13T17:05:36.546Z,93.27
2022-11-13T17:08:06.407Z,93.16
2022-11-13T17:10:36.140Z,93.86
2022-11-13T17:13:07.788Z,93.94
2022-11-13T17:15:37.891Z,92.96
2022-11-13T17:18:10.453Z,92.66
2022-11-13T17:20:40.069Z,93.35
2022-11-13T17:23:12.497Z,92.88
2022-11-13T17:25:43.012Z,92.29
2022-11-13T17:28:13.890Z,92.85
2022-11-13T17:30:43.399Z,93.53
2022-11-13T17:33:13.152Z,93.17
2022-11-13T17:35:46.469Z,92.55
2022-11-13T17:38:16.234Z,92.81
2022-11-13T17:40:46.326Z,92.69
2022-11-13T17:43:17.629Z,92.89
2022-11-13T17:45:50.034Z,92.95
2022-11-13T17:48:20.136Z,92.65
2022-11-13T17:50:59.115Z,92.61
2022-11-13T17:53:29.243Z,92.51
2022-11-13T17:56:00.772Z,92.58
2022-11-13T17:58:31.918Z,93.38
2022-11-13T18:01:05.290Z,93.37
2022-11-13T18:03:37.854Z,93.21
2022-11-13T18:06:09.490Z,94.01
2022-11-13T18:08:39.495Z,94.18
2022-11-13T18:11:10.076Z,93.96
2022-11-13T18:13:41.258Z,93.53
2022-11-13T18:16:12.912Z,93.36
2022-11-13T18:18:42.681Z,93.25
2022-11-13T18:21:22.518Z,94.29
2022-11-13T18:23:57.424Z,94.09
2022-11-13T18:26:27.676Z,93.54
2022-11-13T18:28:59.231Z,94.17
2022-11-13T18:31:29.578Z,94.05
2022-11-13T18:33:59.566Z,93.84
2022-11-13T18:36:29.780Z,93.12
2022-11-13T18:39:02.059Z,93.34
2022-11-13T18:41:32.631Z,92.74
2022-11-13T18:44:03.958Z,93.12
2022-11-13T18:46:33.569Z,93.09
2022-11-13T18:49:03.289Z,92.88
2022-11-13T18:51:35.686Z,93.23
2022-11-13T18:54:09.645Z,93.85
2022-11-13T18:56:40.764Z,93.29
2022-11-13T18:59:11.841Z,93.75
2022-11-13T19:01:42.206Z,92.84
2022-11-13T19:04:27.487Z,92.13
2022-11-13T19:06:57.539Z,92.86
2022-11-13T19:09:27.565Z,92.68
2022-11-13T19:11:58.186Z,93.33
2022-11-13T19:14:29.903Z,93.14
2022-11-13T19:17:00.325Z,93.36
2022-11-13T19:19:29.956Z,93.24
2022-11-13T19:22:00.494Z,93.13
2022-11-13T19:24:30.717Z,93.85
2022-11-13T19:27:00.587Z,93.39
2022-11-13T19:29:31.673Z,93.57
2022-11-13T19:32:01.452Z,93.22
2022-11-13T19:34:31.107Z,92.72
2022-11-13T19:37:00.731Z,93.15
2022-11-13T19:39:30.461Z,93.30
2022-11-13T19:42:00.262Z,93.29
2022-11-13T19:44:31.521Z,93.47
2022-11-13T19:47:01.226Z,93.88
2022-11-13T19:49:31.005Z,93.20
2022-11-13T19:52:00.735Z,93.70
2022-11-13T19:54:30.357Z,93.30
2022-11-13T19:57:00.242Z,93.26
2022-11-13T19:59:31.216Z,93.29
2022-11-13T20:02:00.740Z,93.51
2022-11-13T20:04:30.280Z,93.40
2022-11-13T20:07:00.160Z,93.65
2022-11-13T20:09:30.102Z,93.73
2022-11-13T20:12:00.243Z,93.53
2022-11-13T20:14:35.668Z,93.90
2022-11-13T20:17:09.109Z,93.20
2022-11-13T20:19:38.938Z,92.88
2022-11-13T20:22:08.493Z,92.46
2022-11-13T20:24:38.095Z,92.97
2022-11-13T20:27:07.753Z,93.31
2022-11-13T20:29:38.660Z,92.81
2022-11-13T20:32:08.232Z,93.22
2022-11-13T20:34:37.710Z,93.43
2022-11-13T20:37:07.218Z,92.80
2022-11-13T20:39:38.894Z,93.19
2022-11-13T20:42:09.004Z,93.34
2022-11-13T20:44:39.865Z,93.16
2022-11-13T20:47:09.372Z,93.00
2022-11-13T20:49:38.895Z,93.89
2022-11-13T20:52:09.703Z,93.28
2022-11-13T20:54:39.312Z,93.05
2022-11-13T20:57:08.840Z,93.21
2022-11-13T20:59:39.771Z,92.50
2022-11-13T21:02:10.065Z,93.21
2022-11-13T21:04:39.640Z,93.11
2022-11-13T21:07:09.269Z,92.81
2022-11-13T21:09:38.817Z,92.30
2022-11-13T21:12:09.028Z,93.36
2022-11-13T21:14:40.714Z,92.91
2022-11-13T21:17:10.718Z,93.64
2022-11-13T21:19:40.201Z,93.42
2022-11-13T21:22:09.729Z,92.44
2022-11-13T21:24:39.228Z,92.78
2022-11-13T21:27:08.730Z,92.82
2022-11-13T21:29:38.235Z,93.58
2022-11-13T21:32:09.142Z,93.59
2022-11-13T21:34:38.737Z,93.22
2022-11-13T21:37:08.323Z,93.72
2022-11-13T21:39:37.831Z,93.41
2022-11-13T21:42:07.731Z,94.30
2022-11-13T21:44:37.768Z,93.81
2022-11-13T21:47:07.322Z,93.55
2022-11-13T21:49:38.223Z,93.33
2022-11-13T21:52:07.700Z,92.85
2022-11-13T21:54:37.238Z,91.96
2022-11-13T21:57:07.029Z,92.10
2022-11-13T21:59:36.597Z,93.14
2022-11-13T22:02:06.174Z,93.33
2022-11-13T22:04:35.838Z,93.27
2022-11-13T22:07:06.830Z,93.20
2022-11-13T22:09:37.102Z,92.87
2022-11-13T22:12:07.525Z,93.67
2022-11-13T22:14:37.442Z,93.71
2022-11-13T22:17:07.464Z,92.81
2022-11-13T22:19:37.239Z,92.95
2022-11-13T22:22:08.219Z,93.32
2022-11-13T22:24:37.733Z,93.37
2022-11-13T22:27:07.244Z,93.22
2022-11-13T22:29:36.793Z,93.72
2022-11-13T22:32:06.437Z,92.90
2022-11-13T22:34:35.921Z,92.39
2022-11-13T22:37:05.433Z,92.80
2022-11-13T22:39:36.310Z,92.88
2022-11-13T22:42:05.851Z,92.98
2022-11-13T22:44:54.831Z,92.82
2022-11-13T22:47:24.833Z,93.25
2022-11-13T22:49:54.300Z,93.29
2022-11-13T22:52:23.897Z,92.29
2022-11-13T22:54:54.781Z,92.95
2022-11-13T22:57:24.294Z,92.93
2022-11-13T22:59:53.820Z,92.07
2022-11-13T23:02:23.449Z,92.13
2022-11-13T23:04:52.938Z,92.49
2022-11-13T23:07:22.845Z,92.14
2022-11-13T23:09:52.564Z,92.52
2022-11-13T23:12:24.140Z,92.00
2022-11-13T23:14:53.996Z,92.21
2022-11-13T23:17:23.994Z,92.53
2022-11-13T23:19:53.549Z,92.68
2022-11-13T23:22:23.058Z,92.32
2022-11-13T23:24:52.613Z,92.83
2022-11-13T23:27:22.196Z,92.29
2022-11-13T23:29:53.832Z,92.55
2022-11-13T23:32:23.606Z,92.15
2022-11-13T23:34:59.308Z,92.34
2022-11-13T23:37:29.545Z,92.10
2022-11-13T23:39:59.203Z,92.28
2022-11-13T23:42:53.382Z,92.24
2022-11-13T23:45:19.798Z,92.29
2022-11-13T23:47:49.304Z,91.75
2022-11-13T23:50:18.809Z,92.09
2022-11-13T23:52:48.571Z,92.27
2022-11-13T23:55:18.670Z,92.48
2022-11-13T23:57:48.457Z,92.40
